createdAt,value
2022-10-12T00:02:18.701Z,19.63
2022-10-12T00:04:47.701Z,13.80
2022-10-12T00:07:15.425Z,11.00
2022-10-12T00:09:43.169Z,7.23
2022-10-12T00:12:10.794Z,10.93
2022-10-12T00:14:38.887Z,10.33
2022-10-12T00:17:06.518Z,7.80
2022-10-12T00:19:34.090Z,12.83
2022-10-12T00:22:03.038Z,11.03
2022-10-12T00:24:30.673Z,13.43
2022-10-12T00:26:58.309Z,6.77
2022-10-12T00:29:25.850Z,9.10
2022-10-12T00:31:53.493Z,9.73
2022-10-12T00:34:21.066Z,9.50
2022-10-12T00:36:49.065Z,9.67
2022-10-12T00:39:17.972Z,9.63
2022-10-12T00:41:45.794Z,7.43
2022-10-12T00:44:36.136Z,10.73
2022-10-12T00:47:08.088Z,5.13
2022-10-12T00:49:36.165Z,12.03
2022-10-12T00:52:08.781Z,7.83
2022-10-12T00:54:40.926Z,9.20
2022-10-12T00:57:08.952Z,14.03
2022-10-12T00:59:39.673Z,10.17
2022-10-12T01:02:07.598Z,13.60
2022-10-12T01:04:35.197Z,8.70
2022-10-12T01:07:02.910Z,8.70
2022-10-12T01:09:30.952Z,7.77
2022-10-12T01:12:00.429Z,10.20
2022-10-12T01:14:28.233Z,11.40
2022-10-12T01:16:59.301Z,8.83
2022-10-12T01:19:47.093Z,7.93
2022-10-12T01:22:18.277Z,9.50
2022-10-12T01:24:51.760Z,12.43
2022-10-12T01:27:37.364Z,13.67
2022-10-12T01:30:16.187Z,11.50
2022-10-12T01:32:59.741Z,15.07
2022-10-12T01:35:30.823Z,9.90
2022-10-12T01:38:05.705Z,7.00
2022-10-12T01:40:36.838Z,7.63
2022-10-12T01:43:04.612Z,8.13
2022-10-12T01:45:34.568Z,10.30
2022-10-12T01:48:02.773Z,11.63
2022-10-12T01:50:38.452Z,10.43
2022-10-12T01:53:12.201Z,11.20
2022-10-12T01:55:46.018Z,14.47
2022-10-12T01:58:33.591Z,10.43
2022-10-12T02:05:32.681Z,6.73
2022-10-12T02:08:05.249Z,10.50
2022-10-12T02:10:38.308Z,11.50
2022-10-12T02:13:08.619Z,11.90
2022-10-12T02:15:37.772Z,9.90
2022-10-12T02:18:05.803Z,14.93
2022-10-12T02:20:34.605Z,12.83
2022-10-12T02:23:04.126Z,12.57
2022-10-12T02:25:32.366Z,10.07
2022-10-12T02:28:03.284Z,9.23
2022-10-12T02:30:33.897Z,10.00
2022-10-12T02:33:06.802Z,8.03
2022-10-12T02:35:39.622Z,16.03
2022-10-12T02:38:13.124Z,9.90
2022-10-12T02:40:44.396Z,10.73
2022-10-12T02:43:15.103Z,15.87
2022-10-12T02:45:44.758Z,12.47
2022-10-12T02:48:15.153Z,10.40
2022-10-12T02:50:42.846Z,14.93
2022-10-12T02:53:12.546Z,11.50
2022-10-12T02:55:40.321Z,12.80
2022-10-12T02:58:07.977Z,13.30
2022-10-12T03:00:35.461Z,8.00
2022-10-12T03:03:02.967Z,13.97
2022-10-12T03:05:30.538Z,12.37
2022-10-12T03:07:58.148Z,11.60
2022-10-12T03:10:27.033Z,11.87
2022-10-12T03:12:55.516Z,10.73
2022-10-12T03:15:23.377Z,13.40
2022-10-12T03:17:51.295Z,10.90
2022-10-12T03:20:18.924Z,10.77
2022-10-12T03:22:46.531Z,8.83
2022-10-12T03:25:14.203Z,11.93
2022-10-12T03:27:43.166Z,16.00
2022-10-12T03:30:12.322Z,9.03
2022-10-12T03:32:40.087Z,13.00
2022-10-12T03:35:08.358Z,11.00
2022-10-12T03:37:36.364Z,8.57
2022-10-12T03:40:04.586Z,10.63
2022-10-12T03:42:32.120Z,6.70
2022-10-12T03:45:00.966Z,11.47
2022-10-12T03:47:28.477Z,15.17
2022-10-12T03:49:56.004Z,9.93
2022-10-12T03:52:23.614Z,10.00
2022-10-12T03:54:51.104Z,9.53
2022-10-12T03:57:18.980Z,13.87
2022-10-12T03:59:46.507Z,10.93
2022-10-12T04:02:17.063Z,9.30
2022-10-12T04:04:45.026Z,14.53
2022-10-12T04:07:12.618Z,11.23
2022-10-12T04:09:40.180Z,7.80
2022-10-12T04:12:07.861Z,7.93
2022-10-12T04:14:35.397Z,6.37
2022-10-12T04:17:03.922Z,7.50
2022-10-12T04:19:32.902Z,6.53
2022-10-12T04:22:00.427Z,13.47
2022-10-12T04:24:27.914Z,7.93
2022-10-12T04:26:55.467Z,8.03
2022-10-12T04:29:23.262Z,8.50
2022-10-12T04:31:50.946Z,11.50
2022-10-12T04:34:18.680Z,7.80
2022-10-12T04:36:47.548Z,7.10
2022-10-12T04:39:15.068Z,8.37
2022-10-12T04:41:42.555Z,8.90
2022-10-12T04:44:10.259Z,7.33
2022-10-12T04:46:37.946Z,10.47
2022-10-12T04:49:05.510Z,8.60
2022-10-12T04:51:33.103Z,7.03
2022-10-12T04:54:01.964Z,6.23
2022-10-12T04:56:29.420Z,10.43
2022-10-12T04:58:57.002Z,12.23
2022-10-12T05:01:24.768Z,8.83
2022-10-12T05:03:52.466Z,11.33
2022-10-12T05:06:20.026Z,13.53
2022-10-12T05:08:47.561Z,10.80
2022-10-12T05:11:16.566Z,11.17
2022-10-12T05:13:44.052Z,11.90
2022-10-12T05:16:11.600Z,10.93
2022-10-12T05:18:39.114Z,10.00
2022-10-12T05:21:06.786Z,12.57
2022-10-12T05:23:34.289Z,8.60
2022-10-12T05:26:01.839Z,12.00
2022-10-12T05:28:30.861Z,14.90
2022-10-12T05:30:58.531Z,12.40
2022-10-12T05:33:26.179Z,10.73
2022-10-12T05:35:56.515Z,9.23
2022-10-12T05:38:24.321Z,8.50
2022-10-12T05:40:54.371Z,12.23
2022-10-12T05:43:25.366Z,11.97
2022-10-12T05:45:54.173Z,12.00
2022-10-12T05:48:21.815Z,12.57
2022-10-12T05:50:49.529Z,9.03
2022-10-12T05:53:17.038Z,13.07
2022-10-12T05:55:53.112Z,7.30
2022-10-12T05:58:20.662Z,13.17
2022-10-12T06:00:48.261Z,8.47
2022-10-12T06:03:18.923Z,9.50
2022-10-12T06:05:47.106Z,9.53
2022-10-12T06:08:14.716Z,9.13
2022-10-12T06:10:47.163Z,8.90
2022-10-12T06:13:17.666Z,18.53
2022-10-12T06:15:45.681Z,17.50
2022-10-12T06:18:13.365Z,13.70
2022-10-12T06:20:42.261Z,14.57
2022-10-12T06:23:09.990Z,17.27
2022-10-12T06:25:37.919Z,12.03
2022-10-12T06:28:05.644Z,16.00
2022-10-12T06:30:33.797Z,10.43
2022-10-12T06:33:01.293Z,14.20
2022-10-12T06:35:28.813Z,16.87
2022-10-12T06:37:57.624Z,11.93
2022-10-12T06:40:25.172Z,12.77
2022-10-12T06:42:58.293Z,9.33
2022-10-12T06:45:26.163Z,18.97
2022-10-12T06:47:53.790Z,12.13
2022-10-12T06:50:21.446Z,19.47
2022-10-12T06:52:49.074Z,13.53
2022-10-12T06:55:17.924Z,12.07
2022-10-12T06:57:45.417Z,11.07
2022-10-12T07:00:13.822Z,15.33
2022-10-12T07:02:41.751Z,11.60
2022-10-12T07:05:09.942Z,13.33
2022-10-12T07:07:38.107Z,13.67
2022-10-12T07:10:06.855Z,13.53
2022-10-12T07:12:36.588Z,11.20
2022-10-12T07:15:05.422Z,11.77
2022-10-12T07:17:32.950Z,11.80
2022-10-12T07:20:00.449Z,13.40
2022-10-12T07:22:27.947Z,15.17
2022-10-12T07:24:55.452Z,18.20
2022-10-12T07:27:23.327Z,12.13
2022-10-12T07:29:52.190Z,9.37
2022-10-12T07:32:19.671Z,12.33
2022-10-12T07:34:47.165Z,9.87
2022-10-12T07:37:15.289Z,14.67
2022-10-12T07:39:43.168Z,8.83
2022-10-12T07:42:12.608Z,10.03
2022-10-12T07:44:43.041Z,6.50
2022-10-12T07:47:11.878Z,9.93
2022-10-12T07:49:39.383Z,11.90
2022-10-12T07:52:06.879Z,9.53
2022-10-12T07:54:34.422Z,12.57
2022-10-12T07:57:01.931Z,10.07
2022-10-12T07:59:29.388Z,18.07
2022-10-12T08:01:56.877Z,6.47
2022-10-12T08:04:26.390Z,16.13
2022-10-12T08:06:53.915Z,14.37
2022-10-12T08:09:21.550Z,7.63
2022-10-12T08:11:49.126Z,9.27
2022-10-12T08:14:17.489Z,8.20
2022-10-12T08:16:45.244Z,6.63
2022-10-12T08:19:14.071Z,13.33
2022-10-12T08:21:43.046Z,8.40
2022-10-12T08:24:11.182Z,11.70
2022-10-12T08:26:38.730Z,10.70
2022-10-12T08:29:08.117Z,7.57
2022-10-12T08:31:35.923Z,16.67
2022-10-12T08:34:03.764Z,7.77
2022-10-12T08:36:31.266Z,10.53
2022-10-12T08:39:00.148Z,6.97
2022-10-12T08:41:37.922Z,7.10
2022-10-12T08:44:18.319Z,12.43
2022-10-12T08:46:46.137Z,13.17
2022-10-12T08:49:16.480Z,10.53
2022-10-12T08:51:49.432Z,8.93
2022-10-12T08:54:21.803Z,9.53
2022-10-12T08:56:49.419Z,7.97
2022-10-12T08:59:20.315Z,9.70
2022-10-12T09:02:00.909Z,10.40
2022-10-12T09:04:38.492Z,11.30
2022-10-12T09:07:10.593Z,17.33
2022-10-12T09:09:55.280Z,9.37
2022-10-12T09:12:34.381Z,10.00
2022-10-12T09:15:05.749Z,8.60
2022-10-12T09:17:38.650Z,11.33
2022-10-12T09:20:11.759Z,14.73
2022-10-12T09:22:40.549Z,12.27
2022-10-12T09:25:15.723Z,8.37
2022-10-12T09:27:45.977Z,9.53
2022-10-12T09:30:15.316Z,7.37
2022-10-12T09:33:13.941Z,10.97
2022-10-12T09:35:45.937Z,11.77
2022-10-12T09:38:13.598Z,15.70
2022-10-12T09:40:42.811Z,10.67
2022-10-12T09:43:11.035Z,9.73
2022-10-12T09:45:38.831Z,8.87
2022-10-12T09:48:18.999Z,9.77
2022-10-12T09:50:50.286Z,10.17
2022-10-12T09:53:26.728Z,17.30
2022-10-12T09:55:58.324Z,17.37
2022-10-12T09:58:26.500Z,11.77
2022-10-12T10:01:23.387Z,14.57
2022-10-12T10:04:07.575Z,12.40
2022-10-12T10:06:35.617Z,9.13
2022-10-12T10:09:03.323Z,14.13
2022-10-12T10:11:32.393Z,10.43
2022-10-12T10:14:01.550Z,15.97
2022-10-12T10:16:30.400Z,15.27
2022-10-12T10:18:59.670Z,12.20
2022-10-12T10:21:30.523Z,16.10
2022-10-12T10:23:59.662Z,13.80
2022-10-12T10:26:29.051Z,11.23
2022-10-12T10:29:16.234Z,13.53
2022-10-12T10:31:46.261Z,12.47
2022-10-12T10:34:21.468Z,14.97
2022-10-12T10:36:51.810Z,13.40
2022-10-12T10:39:22.474Z,13.43
2022-10-12T10:41:50.474Z,16.77
2022-10-12T10:44:27.434Z,18.50
2022-10-12T10:46:55.871Z,12.40
2022-10-12T10:49:27.271Z,12.83
2022-10-12T10:51:56.773Z,10.43
2022-10-12T10:54:28.629Z,8.63
2022-10-12T10:57:00.375Z,12.37
2022-10-12T10:59:37.921Z,16.47
2022-10-12T11:02:15.037Z,16.20
2022-10-12T11:04:44.610Z,13.00
2022-10-12T11:07:22.711Z,20.70
2022-10-12T11:09:53.966Z,11.13
2022-10-12T11:12:31.044Z,14.63
2022-10-12T11:15:05.850Z,17.03
2022-10-12T11:17:36.083Z,15.83
2022-10-12T11:20:19.914Z,7.03
2022-10-12T11:22:50.131Z,9.00
2022-10-12T11:25:22.061Z,9.57
2022-10-12T11:27:53.756Z,9.93
2022-10-12T11:30:25.019Z,7.40
2022-10-12T11:32:55.149Z,16.80
2022-10-12T11:35:28.262Z,11.20
2022-10-12T11:38:00.997Z,15.90
2022-10-12T11:40:55.497Z,16.33
2022-10-12T11:43:22.749Z,13.67
2022-10-12T11:45:54.613Z,15.70
2022-10-12T11:48:27.161Z,11.53
2022-10-12T11:50:58.942Z,12.07
2022-10-12T11:53:35.963Z,14.93
2022-10-12T11:56:09.453Z,12.03
2022-10-12T11:59:02.198Z,10.60
2022-10-12T12:01:38.793Z,13.90
2022-10-12T12:07:21.139Z,12.10
2022-10-12T12:09:50.723Z,14.93
2022-10-12T12:12:22.633Z,13.70
2022-10-12T12:15:08.510Z,13.20
2022-10-12T12:17:38.665Z,10.33
2022-10-12T12:20:39.447Z,14.13
2022-10-12T12:23:20.475Z,11.53
2022-10-12T12:25:48.718Z,14.80
2022-10-12T12:28:21.224Z,13.00
2022-10-12T12:30:58.052Z,12.30
2022-10-12T12:33:30.147Z,15.57
2022-10-12T12:35:59.321Z,12.33
2022-10-12T12:38:29.970Z,13.37
2022-10-12T12:41:00.488Z,9.70
2022-10-12T12:43:53.941Z,15.83
2022-10-12T12:46:21.838Z,13.90
2022-10-12T12:49:30.180Z,12.10
2022-10-12T12:51:59.688Z,13.23
2022-10-12T12:54:28.201Z,11.40
2022-10-12T12:57:25.640Z,6.57
2022-10-12T13:00:12.041Z,15.63
2022-10-12T13:03:27.289Z,13.70
2022-10-12T13:06:31.808Z,10.37
2022-10-12T13:09:17.136Z,8.63
2022-10-12T13:11:53.328Z,11.00
2022-10-12T13:14:32.338Z,15.37
2022-10-12T13:20:05.707Z,16.57
2022-10-12T13:22:35.820Z,13.23
2022-10-12T13:25:05.741Z,13.03
2022-10-12T13:27:38.110Z,12.63
2022-10-12T13:30:14.372Z,14.77
2022-10-12T13:32:45.946Z,11.17
2022-10-12T13:35:16.653Z,11.60
2022-10-12T13:37:45.577Z,17.73
2022-10-12T13:40:29.479Z,7.00
2022-10-12T13:42:57.139Z,12.40
2022-10-12T13:45:24.862Z,10.83
2022-10-12T13:47:52.445Z,13.00
2022-10-12T13:50:22.062Z,9.30
2022-10-12T13:52:55.193Z,15.53
2022-10-12T13:55:27.327Z,13.37
2022-10-12T13:57:55.004Z,13.77
2022-10-12T14:00:26.394Z,10.90
2022-10-12T14:02:58.209Z,8.70
2022-10-12T14:05:28.813Z,9.03
2022-10-12T14:08:00.562Z,12.70
2022-10-12T14:10:30.624Z,11.37
2022-10-12T14:12:58.891Z,11.97
2022-10-12T14:15:33.586Z,9.13
2022-10-12T14:18:01.544Z,14.37
2022-10-12T14:20:31.328Z,10.03
2022-10-12T14:23:01.600Z,9.40
2022-10-12T14:25:30.641Z,13.00
2022-10-12T14:28:00.080Z,11.57
2022-10-12T14:30:31.188Z,11.23
2022-10-12T14:33:11.399Z,9.70
2022-10-12T14:35:42.051Z,15.00
2022-10-12T14:38:39.538Z,13.83
2022-10-12T14:41:32.809Z,14.13
2022-10-12T14:44:22.180Z,19.67
2022-10-12T14:46:52.920Z,14.53
2022-10-12T14:49:22.208Z,9.73
2022-10-12T14:51:50.850Z,12.40
2022-10-12T14:54:19.948Z,14.07
2022-10-12T14:56:47.734Z,15.57
2022-10-12T14:59:15.291Z,11.00
2022-10-12T15:01:45.210Z,10.10
2022-10-12T15:04:15.195Z,12.90
2022-10-12T15:06:44.875Z,10.23
2022-10-12T15:09:15.916Z,12.97
2022-10-12T15:11:44.858Z,12.23
2022-10-12T15:14:14.317Z,14.20
2022-10-12T15:16:41.906Z,11.40
2022-10-12T15:19:09.454Z,12.90
2022-10-12T15:21:37.006Z,8.23
2022-10-12T15:24:06.410Z,12.23
2022-10-12T15:26:33.942Z,12.80
2022-10-12T15:29:02.910Z,13.87
2022-10-12T15:31:30.535Z,11.93
2022-10-12T15:33:58.101Z,11.00
2022-10-12T15:36:25.833Z,12.47
2022-10-12T15:38:53.349Z,9.70
2022-10-12T15:41:23.904Z,8.70
2022-10-12T15:43:51.540Z,9.07
2022-10-12T15:46:21.209Z,12.93
2022-10-12T15:48:49.129Z,10.93
2022-10-12T15:51:18.869Z,13.37
2022-10-12T15:53:46.765Z,10.50
2022-10-12T15:56:16.001Z,17.47
2022-10-12T15:58:43.757Z,14.87
2022-10-12T16:01:12.913Z,15.63
2022-10-12T16:03:42.205Z,21.20
2022-10-12T16:06:09.989Z,15.17
2022-10-12T16:08:37.823Z,7.17
2022-10-12T16:11:06.276Z,11.37
2022-10-12T16:13:34.441Z,15.00
2022-10-12T16:16:03.520Z,10.97
2022-10-12T16:18:31.285Z,11.13
2022-10-12T16:21:00.212Z,10.90
2022-10-12T16:23:30.153Z,18.70
2022-10-12T16:25:58.228Z,15.30
2022-10-12T16:28:26.452Z,10.03
2022-10-12T16:30:54.791Z,8.77
2022-10-12T16:33:22.330Z,16.70
2022-10-12T16:35:50.255Z,7.13
2022-10-12T16:38:20.158Z,9.40
2022-10-12T16:40:49.154Z,12.20
2022-10-12T16:43:16.792Z,8.40
2022-10-12T16:45:44.397Z,9.10
2022-10-12T16:48:11.863Z,10.60
2022-10-12T16:50:40.743Z,10.97
2022-10-12T16:53:09.085Z,12.70
2022-10-12T16:55:39.883Z,11.23
2022-10-12T16:58:07.455Z,16.73
2022-10-12T17:00:35.038Z,9.17
2022-10-12T17:03:02.642Z,10.63
2022-10-12T17:05:30.274Z,7.00
2022-10-12T17:07:59.702Z,5.67
2022-10-12T17:10:27.223Z,7.50
2022-10-12T17:12:56.225Z,12.17
2022-10-12T17:15:23.701Z,10.50
2022-10-12T17:17:51.413Z,10.97
2022-10-12T17:20:19.014Z,12.03
2022-10-12T17:22:46.571Z,6.77
2022-10-12T17:25:14.139Z,12.10
2022-10-12T17:27:41.711Z,9.80
2022-10-12T17:30:11.867Z,7.90
2022-10-12T17:32:41.514Z,8.53
2022-10-12T17:35:09.941Z,11.33
2022-10-12T17:37:37.470Z,12.03
2022-10-12T17:40:05.608Z,5.73
2022-10-12T17:42:33.133Z,7.33
2022-10-12T17:45:00.719Z,15.27
2022-10-12T17:47:29.653Z,13.80
2022-10-12T17:49:57.179Z,15.43
2022-10-12T17:52:24.764Z,7.67
2022-10-12T17:54:52.373Z,15.43
2022-10-12T17:57:20.397Z,13.33
2022-10-12T17:59:48.299Z,14.73
2022-10-12T18:02:15.835Z,15.47
2022-10-12T18:04:44.894Z,15.63
2022-10-12T18:07:12.593Z,10.87
2022-10-12T18:09:41.127Z,9.47
2022-10-12T18:12:08.842Z,17.03
2022-10-12T18:14:36.437Z,16.60
2022-10-12T18:17:04.234Z,21.10
2022-10-12T18:19:32.536Z,27.03
2022-10-12T18:22:01.476Z,38.77
2022-10-12T18:24:29.111Z,27.90
2022-10-12T18:26:56.823Z,33.47
2022-10-12T18:29:24.426Z,29.80
2022-10-12T18:31:53.053Z,36.43
2022-10-12T18:34:20.659Z,24.27
2022-10-12T18:36:48.291Z,24.03
2022-10-12T18:39:17.915Z,14.13
2022-10-12T18:41:45.756Z,15.80
2022-10-12T18:44:15.039Z,15.37
2022-10-12T18:46:42.700Z,18.33
2022-10-12T18:49:11.940Z,17.07
2022-10-12T18:51:41.948Z,19.47
2022-10-12T18:54:12.708Z,18.07
2022-10-12T18:56:42.832Z,22.00
2022-10-12T18:59:12.083Z,20.20
2022-10-12T19:01:39.653Z,18.40
2022-10-12T19:04:07.828Z,20.00
2022-10-12T19:06:38.804Z,21.40
2022-10-12T19:09:06.553Z,16.93
2022-10-12T19:11:34.661Z,17.80
2022-10-12T19:14:07.708Z,17.03
2022-10-12T19:16:36.781Z,24.77
2022-10-12T19:19:07.740Z,13.80
2022-10-12T19:21:36.025Z,13.57
2022-10-12T19:24:04.120Z,18.40
2022-10-12T19:26:32.084Z,25.67
2022-10-12T19:28:59.621Z,16.30
2022-10-12T19:31:30.272Z,27.30
2022-10-12T19:33:58.333Z,24.53
2022-10-12T19:36:27.039Z,18.37
2022-10-12T19:38:56.101Z,16.40
2022-10-12T19:41:23.966Z,21.63
2022-10-12T19:43:53.060Z,14.13
2022-10-12T19:46:21.604Z,21.00
2022-10-12T19:48:52.207Z,25.33
2022-10-12T19:51:20.576Z,19.67
2022-10-12T19:53:48.575Z,38.60
2022-10-12T19:56:18.644Z,27.47
2022-10-12T19:58:46.610Z,26.57
2022-10-12T20:01:16.551Z,27.50
2022-10-12T20:03:48.003Z,23.00
2022-10-12T20:06:17.513Z,24.23
2022-10-12T20:08:45.912Z,19.30
2022-10-12T20:11:20.600Z,17.47
2022-10-12T20:13:51.701Z,21.57
2022-10-12T20:16:20.326Z,25.27
2022-10-12T20:18:48.733Z,19.90
2022-10-12T20:21:20.165Z,22.57
2022-10-12T20:23:48.436Z,23.77
2022-10-12T20:26:17.689Z,21.47
2022-10-12T20:28:45.533Z,23.77
2022-10-12T20:31:13.298Z,28.67
2022-10-12T20:33:41.030Z,17.27
2022-10-12T20:36:09.793Z,22.53
2022-10-12T20:38:39.411Z,24.30
2022-10-12T20:41:08.818Z,17.83
2022-10-12T20:43:37.300Z,16.13
2022-10-12T20:46:05.793Z,15.50
2022-10-12T20:48:33.984Z,19.20
2022-10-12T20:51:01.594Z,22.30
2022-10-12T20:53:29.513Z,19.83
2022-10-12T20:55:58.512Z,17.37
2022-10-12T20:58:28.072Z,20.13
2022-10-12T21:01:03.855Z,22.77
2022-10-12T21:03:31.798Z,22.83
2022-10-12T21:06:03.067Z,17.20
2022-10-12T21:08:30.734Z,21.50
2022-10-12T21:10:59.928Z,26.60
2022-10-12T21:13:30.782Z,22.57
2022-10-12T21:15:58.336Z,22.83
2022-10-12T21:18:26.269Z,32.87
2022-10-12T21:20:56.132Z,24.53
2022-10-12T21:23:24.518Z,23.80
2022-10-12T21:25:52.540Z,20.00
2022-10-12T21:28:22.558Z,24.77
2022-10-12T21:30:51.038Z,24.30
2022-10-12T21:33:19.502Z,21.37
2022-10-12T21:35:47.282Z,16.73
2022-10-12T21:38:17.398Z,23.93
2022-10-12T21:40:45.274Z,25.90
2022-10-12T21:43:13.555Z,19.17
2022-10-12T21:45:42.676Z,22.30
2022-10-12T21:48:10.343Z,18.80
2022-10-12T21:50:37.927Z,23.27
2022-10-12T21:53:05.618Z,22.33
2022-10-12T21:55:33.771Z,25.43
2022-10-12T21:58:01.441Z,21.33
2022-10-12T22:00:29.133Z,23.67
2022-10-12T22:02:58.128Z,20.10
2022-10-12T22:05:25.649Z,19.20
2022-10-12T22:07:53.290Z,27.07
2022-10-12T22:10:20.831Z,25.30
2022-10-12T22:12:48.555Z,21.70
2022-10-12T22:15:16.361Z,18.70
2022-10-12T22:17:44.174Z,21.87
2022-10-12T22:20:13.674Z,23.87
2022-10-12T22:22:41.906Z,22.63
2022-10-12T22:25:09.832Z,27.77
2022-10-12T22:27:37.620Z,25.20
2022-10-12T22:30:06.155Z,31.60
2022-10-12T22:32:34.142Z,25.17
2022-10-12T22:35:01.797Z,24.03
2022-10-12T22:37:30.930Z,21.03
2022-10-12T22:39:58.812Z,23.70
2022-10-12T22:42:26.743Z,22.37
2022-10-12T22:44:54.232Z,23.60
2022-10-12T22:47:22.114Z,24.23
2022-10-12T22:49:49.879Z,24.57
2022-10-12T22:52:17.691Z,22.23
2022-10-12T22:54:47.242Z,23.50
2022-10-12T22:57:14.741Z,22.40
2022-10-12T22:59:42.377Z,24.13
2022-10-12T23:02:09.865Z,23.17
2022-10-12T23:04:37.548Z,31.80
2022-10-12T23:07:05.566Z,21.43
2022-10-12T23:09:33.213Z,21.73
2022-10-12T23:12:02.043Z,24.07
2022-10-12T23:14:29.969Z,25.87
2022-10-12T23:16:57.529Z,19.63
2022-10-12T23:19:25.293Z,22.50
2022-10-12T23:21:52.934Z,22.70
2022-10-12T23:24:20.502Z,23.50
2022-10-12T23:26:48.148Z,22.13
2022-10-12T23:29:17.298Z,21.23
2022-10-12T23:31:44.822Z,26.23
2022-10-12T23:34:12.533Z,27.00
2022-10-12T23:36:40.044Z,22.33
2022-10-12T23:39:07.731Z,19.83
2022-10-12T23:41:35.418Z,23.67
2022-10-12T23:44:03.076Z,25.07
2022-10-12T23:46:32.158Z,24.10
2022-10-12T23:48:59.740Z,21.83
2022-10-12T23:51:27.478Z,23.73
2022-10-12T23:53:55.207Z,23.60
2022-10-12T23:56:22.940Z,22.20
2022-10-12T23:58:50.524Z,22.47
